Terminal Aerodrome Forecast
Issued by NWS

Home | Current Version | Previous Version | Text Only | Print | Product List | Glossary On
Versions: 1 2 3 4 5 6 7 8 9 10 11 12 13
000
FTUS44 KLIX 250522
TAFGPT
TAF
KGPT 250522Z 2506/2606 VRB03KT P6SM SCT200
     FM250900 VRB03KT P6SM BKN015
     FM251500 01006KT P6SM VCTS BKN035CB
     FM260000 02005KT P6SM BKN070=

USA.gov is the U.S. government's official web portal to all federal, state and local government web resources and services.